Time;durP1;ratioP1;P1;durP2;ratioP2;P2;SDS_P1;SDS_P2;PMS_P1;PMS_P2;Temp;Humidity;BMP_temperature;BMP_pressure;BME280_temperature;BME280_humidity;BME280_pressure;Samples;Min_cycle;Max_cycle;Signal;HPM_P1;HPM_P2
2022/11/06 00:01:51;;;;;;;6.13;3.53;;;;;;;;;;5040680;28;92710;-58
2022/11/06 00:04:19;;;;;;;9.10;3.57;;;;;;;;;;5040608;28;92094;-58
2022/11/06 00:06:48;;;;;;;6.63;3.17;;;;;;;;;;5040951;28;92061;-58
2022/11/06 00:09:17;;;;;;;3.27;2.27;;;;;;;;;;5029352;28;94094;-58
2022/11/06 00:11:45;;;;;;;5.30;2.77;;;;;;;;;;5020170;28;94781;-58
2022/11/06 00:14:13;;;;;;;3.43;2.20;;;;;;;;;;5027917;28;92710;-58
2022/11/06 00:16:42;;;;;;;3.80;1.90;;;;;;;;;;5024032;28;92019;-58
2022/11/06 00:19:10;;;;;;;3.37;2.20;;;;;;;;;;5031865;28;93044;-58
2022/11/06 00:21:38;;;;;;;4.20;2.43;;;;;;;;;;5040632;28;93779;-58
2022/11/06 00:24:08;;;;;;;3.80;2.03;;;;;;;;;;5040278;28;92183;-58
2022/11/06 00:26:37;;;;;;;3.60;1.40;;;;;;;;;;5040703;28;91266;-58
2022/11/06 00:29:05;;;;;;;3.93;2.27;;;;;;;;;;5039924;28;94418;-58
2022/11/06 00:31:34;;;;;;;3.47;1.60;;;;;;;;;;5040667;28;92942;-58
2022/11/06 00:34:02;;;;;;;2.63;1.93;;;;;;;;;;5039833;28;92880;-58
2022/11/06 00:36:30;;;;;;;2.00;1.80;;;;;;;;;;5040639;28;92217;-58
2022/11/06 00:38:59;;;;;;;4.27;1.50;;;;;;;;;;5040369;28;94160;-59
2022/11/06 00:41:29;;;;;;;2.60;1.63;;;;;;;;;;5039960;28;93369;-58
2022/11/06 00:43:58;;;;;;;2.50;1.73;;;;;;;;;;5040116;28;92159;-60
2022/11/06 00:46:26;;;;;;;1.33;1.23;;;;;;;;;;5040040;28;92132;-61
2022/11/06 00:48:55;;;;;;;2.50;1.73;;;;;;;;;;5039544;28;94047;-59
2022/11/06 00:51:24;;;;;;;3.17;1.90;;;;;;;;;;5036275;28;93948;-58
2022/11/06 00:53:54;;;;;;;1.40;1.30;;;;;;;;;;5017984;28;92380;-58
2022/11/06 00:56:22;;;;;;;1.60;0.90;;;;;;;;;;5000011;28;92072;-59
2022/11/06 00:58:52;;;;;;;1.60;1.30;;;;;;;;;;5017968;28;94375;-58
2022/11/06 01:01:20;;;;;;;3.20;1.93;;;;;;;;;;5019504;28;93459;-58
2022/11/06 01:03:53;;;;;;;1.77;1.30;;;;;;;;;;5019795;28;92064;-59
2022/11/06 01:06:21;;;;;;;1.67;1.50;;;;;;;;;;5019460;28;92088;-59
2022/11/06 01:08:49;;;;;;;2.27;1.73;;;;;;;;;;5018978;28;92113;-58
2022/11/06 01:14:52;;;;;;;2.40;1.80;;;;;;;;;;4987519;22;92810;-59
2022/11/06 01:20:09;;;;;;;2.97;1.13;;;;;;;;;;5053343;27;93141;-59
2022/11/06 01:22:37;;;;;;;2.10;1.43;;;;;;;;;;5060355;27;93744;-58
2022/11/06 01:25:06;;;;;;;1.53;1.17;;;;;;;;;;5060157;27;93036;-59
2022/11/06 01:27:34;;;;;;;2.80;2.13;;;;;;;;;;5060525;27;92068;-58
2022/11/06 01:30:04;;;;;;;2.27;1.40;;;;;;;;;;5059415;27;94259;-59
2022/11/06 01:32:33;;;;;;;3.27;1.33;;;;;;;;;;5057502;27;92641;-58
2022/11/06 01:35:01;;;;;;;2.13;1.03;;;;;;;;;;5060534;27;92744;-58
2022/11/06 01:37:29;;;;;;;3.70;1.23;;;;;;;;;;5060306;27;92163;-58
2022/11/06 01:39:57;;;;;;;3.40;0.90;;;;;;;;;;5060131;27;93219;-58
2022/11/06 01:42:26;;;;;;;1.63;1.03;;;;;;;;;;5060052;27;93939;-58
2022/11/06 01:45:12;;;;;;;1.27;1.03;;;;;;;;;;5059575;27;92143;-59
2022/11/06 01:47:41;;;;;;;1.50;1.40;;;;;;;;;;5060453;27;92161;-58
2022/11/06 01:50:10;;;;;;;1.80;1.13;;;;;;;;;;5059248;27;95134;-59
2022/11/06 01:52:38;;;;;;;5.50;1.73;;;;;;;;;;5059503;27;94779;-58
2022/11/06 01:55:07;;;;;;;1.33;1.20;;;;;;;;;;5060223;27;92076;-59
2022/11/06 01:57:36;;;;;;;1.70;1.20;;;;;;;;;;5060031;27;92218;-59
2022/11/06 02:00:05;;;;;;;4.20;1.60;;;;;;;;;;5059942;27;93273;-59
2022/11/06 02:02:33;;;;;;;2.33;1.23;;;;;;;;;;5059533;27;93879;-58
2022/11/06 02:05:03;;;;;;;1.33;0.80;;;;;;;;;;5060671;27;91852;-59
2022/11/06 02:07:31;;;;;;;1.37;1.27;;;;;;;;;;5060587;27;91382;-58
2022/11/06 02:09:59;;;;;;;1.13;1.03;;;;;;;;;;5059140;27;93201;-60
2022/11/06 02:12:33;;;;;;;3.17;1.23;;;;;;;;;;5058893;27;94307;-59
2022/11/06 02:15:02;;;;;;;2.47;1.23;;;;;;;;;;5059642;27;93088;-58
2022/11/06 02:17:35;;;;;;;1.73;1.43;;;;;;;;;;5060345;27;92120;-59
2022/11/06 02:20:06;;;;;;;2.67;1.30;;;;;;;;;;5059386;27;94245;-58
2022/11/06 02:22:51;;;;;;;2.33;1.63;;;;;;;;;;5059095;27;93994;-58
2022/11/06 02:25:21;;;;;;;2.10;1.03;;;;;;;;;;5059862;27;92082;-58
2022/11/06 02:27:51;;;;;;;1.57;1.27;;;;;;;;;;5060038;27;92152;-59
2022/11/06 02:30:20;;;;;;;2.70;1.67;;;;;;;;;;5058671;27;93320;-58
2022/11/06 02:32:49;;;;;;;5.33;1.80;;;;;;;;;;5059429;27;92964;-60
2022/11/06 02:35:19;;;;;;;4.37;1.07;;;;;;;;;;5059259;27;91899;-58
2022/11/06 02:37:47;;;;;;;4.37;1.23;;;;;;;;;;5060118;27;92012;-58
2022/11/06 02:40:16;;;;;;;1.60;1.50;;;;;;;;;;5058843;27;93129;-58
2022/11/06 02:42:45;;;;;;;1.87;1.67;;;;;;;;;;5059204;27;93781;-58
2022/11/06 02:45:15;;;;;;;2.20;1.63;;;;;;;;;;5059460;27;92014;-58
2022/11/06 02:47:44;;;;;;;2.17;1.23;;;;;;;;;;5059675;27;92091;-58
2022/11/06 02:50:13;;;;;;;1.80;1.53;;;;;;;;;;5057533;27;93154;-59
2022/11/06 02:52:42;;;;;;;2.30;1.10;;;;;;;;;;5059123;27;93849;-58
2022/11/06 02:55:10;;;;;;;1.90;1.17;;;;;;;;;;5060044;27;91740;-58
2022/11/06 02:57:39;;;;;;;2.07;1.00;;;;;;;;;;5060181;27;91361;-58
2022/11/06 03:00:08;;;;;;;1.50;1.40;;;;;;;;;;5059198;27;92769;-58
2022/11/06 03:02:39;;;;;;;1.87;0.87;;;;;;;;;;5059025;27;92650;-58
2022/11/06 03:05:09;;;;;;;1.33;1.23;;;;;;;;;;5057843;27;94265;-58
2022/11/06 03:07:38;;;;;;;1.33;0.87;;;;;;;;;;5059428;27;92043;-58
2022/11/06 03:10:07;;;;;;;2.17;0.87;;;;;;;;;;5058845;27;93177;-59
2022/11/06 03:12:37;;;;;;;1.70;1.00;;;;;;;;;;5058392;27;92069;-58
2022/11/06 03:15:07;;;;;;;1.20;1.03;;;;;;;;;;5059247;27;92076;-58
2022/11/06 03:17:39;;;;;;;1.80;1.17;;;;;;;;;;5059070;27;92025;-59
2022/11/06 03:20:11;;;;;;;3.90;1.50;;;;;;;;;;5058460;27;92938;-58
2022/11/06 03:22:40;;;;;;;1.93;1.20;;;;;;;;;;5058719;27;92782;-59
2022/11/06 03:25:11;;;;;;;2.87;1.20;;;;;;;;;;5059350;27;92131;-58
2022/11/06 03:27:39;;;;;;;1.30;0.90;;;;;;;;;;5058473;27;92128;-58
2022/11/06 03:30:08;;;;;;;2.40;1.23;;;;;;;;;;5058487;27;94164;-58
2022/11/06 03:32:45;;;;;;;3.60;1.00;;;;;;;;;;5057797;27;94836;-58
2022/11/06 03:35:14;;;;;;;1.17;1.03;;;;;;;;;;5051412;27;92020;-58
2022/11/06 03:37:43;;;;;;;1.50;0.90;;;;;;;;;;5058583;27;92066;-59
2022/11/06 03:40:12;;;;;;;1.03;0.87;;;;;;;;;;5058608;27;92667;-58
2022/11/06 03:42:40;;;;;;;2.67;1.10;;;;;;;;;;5058145;27;92771;-59
2022/11/06 03:45:09;;;;;;;0.70;0.70;;;;;;;;;;5059096;27;92061;-59
2022/11/06 03:47:38;;;;;;;1.03;1.03;;;;;;;;;;5059476;27;91287;-58
2022/11/06 03:50:08;;;;;;;1.70;0.93;;;;;;;;;;5056946;27;92946;-58
2022/11/06 03:52:38;;;;;;;1.33;1.07;;;;;;;;;;5058486;27;92762;-59
2022/11/06 03:55:06;;;;;;;1.10;1.00;;;;;;;;;;5058695;27;92845;-58
2022/11/06 03:57:37;;;;;;;1.50;0.80;;;;;;;;;;5058948;27;91811;-59
2022/11/06 04:00:06;;;;;;;1.90;0.90;;;;;;;;;;5058561;27;93109;-58
2022/11/06 04:02:35;;;;;;;1.07;1.00;;;;;;;;;;5060681;27;92826;-58
2022/11/06 04:05:04;;;;;;;2.53;1.00;;;;;;;;;;5062010;27;92040;-59
2022/11/06 04:07:34;;;;;;;1.33;0.93;;;;;;;;;;5061568;27;92081;-58
2022/11/06 04:15:36;;;;;;;1.73;0.90;;;;;;;;;;5061438;27;92736;-58
2022/11/06 04:18:04;;;;;;;1.27;0.90;;;;;;;;;;5061898;27;92053;-58
2022/11/06 04:23:24;;;;;;;0.67;0.50;;;;;;;;;;5061722;27;94972;-59
2022/11/06 04:28:40;;;;;;;0.90;0.70;;;;;;;;;;5035636;27;92018;-59
2022/11/06 04:31:10;;;;;;;1.30;0.63;;;;;;;;;;5061393;27;93132;-59
2022/11/06 04:33:41;;;;;;;1.03;0.73;;;;;;;;;;5061909;27;93806;-59
2022/11/06 04:36:11;;;;;;;1.13;0.87;;;;;;;;;;5061746;27;92077;-58
2022/11/06 04:38:43;;;;;;;0.70;0.70;;;;;;;;;;5060838;27;91377;-59
2022/11/06 04:41:13;;;;;;;0.87;0.87;;;;;;;;;;5061560;27;92801;-58
2022/11/06 04:43:41;;;;;;;0.63;0.63;;;;;;;;;;5061175;27;93826;-58
2022/11/06 04:46:10;;;;;;;2.20;0.90;;;;;;;;;;5051897;27;92968;-59
2022/11/06 04:48:39;;;;;;;1.10;1.00;;;;;;;;;;5048322;27;92045;-59
2022/11/06 04:51:07;;;;;;;2.40;1.20;;;;;;;;;;5060637;27;93157;-59
2022/11/06 04:53:36;;;;;;;1.27;0.70;;;;;;;;;;5060175;27;93989;-59
2022/11/06 04:56:09;;;;;;;0.50;0.50;;;;;;;;;;5061326;27;92136;-59
2022/11/06 04:58:38;;;;;;;0.80;0.80;;;;;;;;;;5060982;27;91990;-59
2022/11/06 05:01:06;;;;;;;1.80;1.03;;;;;;;;;;5061511;27;94365;-59
2022/11/06 05:03:35;;;;;;;0.80;0.70;;;;;;;;;;5060559;27;92779;-59
2022/11/06 05:06:03;;;;;;;0.80;0.80;;;;;;;;;;5061960;27;91879;-59
2022/11/06 05:08:31;;;;;;;2.90;0.70;;;;;;;;;;5061264;27;92066;-58
2022/11/06 05:11:00;;;;;;;1.63;0.90;;;;;;;;;;5060138;27;94333;-59
2022/11/06 05:13:29;;;;;;;1.13;0.40;;;;;;;;;;5059731;27;94738;-59
2022/11/06 05:15:58;;;;;;;0.70;0.70;;;;;;;;;;5060201;27;92155;-60
2022/11/06 05:18:26;;;;;;;0.70;0.70;;;;;;;;;;5061020;27;92001;-59
2022/11/06 05:23:37;;;;;;;0.70;0.70;;;;;;;;;;5059672;27;93788;-59
2022/11/06 05:26:05;;;;;;;1.07;0.73;;;;;;;;;;5060823;27;92049;-58
2022/11/06 05:28:35;;;;;;;0.40;0.40;;;;;;;;;;5061545;27;91346;-59
2022/11/06 05:31:03;;;;;;;2.13;0.90;;;;;;;;;;5060497;27;93117;-59
2022/11/06 05:33:31;;;;;;;6.07;1.17;;;;;;;;;;5059332;27;93865;-59
2022/11/06 05:36:02;;;;;;;1.23;1.03;;;;;;;;;;5060034;27;93132;-58
2022/11/06 05:38:30;;;;;;;0.60;0.60;;;;;;;;;;5059412;27;92089;-59
2022/11/06 05:40:58;;;;;;;0.50;0.50;;;;;;;;;;5060637;27;92673;-59
2022/11/06 05:43:27;;;;;;;1.00;0.70;;;;;;;;;;5060309;27;93823;-59
2022/11/06 05:45:57;;;;;;;1.63;0.90;;;;;;;;;;5060531;27;92109;-59
2022/11/06 05:48:25;;;;;;;0.57;0.40;;;;;;;;;;5060259;27;92088;-59
2022/11/06 05:50:53;;;;;;;1.50;0.70;;;;;;;;;;5059557;27;93194;-59
2022/11/06 05:53:21;;;;;;;0.70;0.70;;;;;;;;;;5060803;27;93871;-58
2022/11/06 05:55:50;;;;;;;0.40;0.40;;;;;;;;;;5042602;27;92101;-59
2022/11/06 05:58:18;;;;;;;0.70;0.70;;;;;;;;;;5052851;27;92036;-59
2022/11/06 06:00:47;;;;;;;0.70;0.70;;;;;;;;;;5059825;27;95106;-58
2022/11/06 06:03:17;;;;;;;1.20;0.73;;;;;;;;;;5058586;27;93892;-59
2022/11/06 06:05:45;;;;;;;0.50;0.50;;;;;;;;;;5060803;27;92401;-58
2022/11/06 06:08:13;;;;;;;0.90;0.90;;;;;;;;;;5059580;27;92075;-60
2022/11/06 06:10:42;;;;;;;0.63;0.50;;;;;;;;;;5059742;27;94172;-60
2022/11/06 06:13:10;;;;;;;1.50;0.83;;;;;;;;;;5060025;27;92574;-59
2022/11/06 06:15:39;;;;;;;0.30;0.30;;;;;;;;;;5059474;27;91976;-58
2022/11/06 06:18:07;;;;;;;0.60;0.60;;;;;;;;;;5060258;27;91359;-59
2022/11/06 06:20:37;;;;;;;0.60;0.60;;;;;;;;;;5059056;27;93212;-60
2022/11/06 06:23:05;;;;;;;0.50;0.50;;;;;;;;;;5059610;27;92789;-58
2022/11/06 06:25:36;;;;;;;0.63;0.50;;;;;;;;;;5059673;27;93003;-59
2022/11/06 06:28:04;;;;;;;0.40;0.40;;;;;;;;;;5059543;27;92136;-58
2022/11/06 06:30:34;;;;;;;0.50;0.50;;;;;;;;;;5059264;27;94134;-59
2022/11/06 06:33:04;;;;;;;4.13;1.07;;;;;;;;;;5059166;27;93933;-59
2022/11/06 06:35:32;;;;;;;0.50;0.50;;;;;;;;;;5059651;27;92042;-58
2022/11/06 06:38:02;;;;;;;0.80;0.80;;;;;;;;;;5059514;27;92027;-59
2022/11/06 06:40:30;;;;;;;0.60;0.60;;;;;;;;;;5059414;27;93913;-58
2022/11/06 06:42:58;;;;;;;0.40;0.40;;;;;;;;;;5059136;27;91573;-59
2022/11/06 06:45:27;;;;;;;0.27;0.27;;;;;;;;;;5054373;27;91987;-59
2022/11/06 06:47:55;;;;;;;3.73;2.13;;;;;;;;;;5046636;27;92214;-59
2022/11/06 06:50:23;;;;;;;10.77;6.07;;;;;;;;;;5036734;27;93869;-59
2022/11/06 06:52:57;;;;;;;10.97;3.87;;;;;;;;;;5043142;27;94473;-59
2022/11/06 06:55:27;;;;;;;4.27;3.03;;;;;;;;;;5043485;27;92204;-59
2022/11/06 06:57:58;;;;;;;16.80;9.37;;;;;;;;;;5041977;27;92088;-60
2022/11/06 07:00:26;;;;;;;17.37;9.57;;;;;;;;;;5040946;27;94186;-59
2022/11/06 07:02:55;;;;;;;32.03;14.10;;;;;;;;;;5037391;27;92898;-59
2022/11/06 07:05:23;;;;;;;23.47;12.17;;;;;;;;;;5042263;27;92123;-59
2022/11/06 07:07:51;;;;;;;21.00;11.27;;;;;;;;;;5041116;27;91445;-58
2022/11/06 07:10:20;;;;;;;30.87;13.60;;;;;;;;;;5034544;27;93297;-59
2022/11/06 07:12:49;;;;;;;31.73;14.27;;;;;;;;;;5037942;27;94078;-60
2022/11/06 07:15:18;;;;;;;29.23;12.00;;;;;;;;;;5038136;27;93480;-60
2022/11/06 07:17:46;;;;;;;14.90;8.87;;;;;;;;;;5037985;27;92023;-60
2022/11/06 07:20:14;;;;;;;11.60;5.17;;;;;;;;;;5040509;27;94284;-59
2022/11/06 07:22:43;;;;;;;7.80;3.53;;;;;;;;;;5040800;27;93913;-62
2022/11/06 07:25:11;;;;;;;5.80;3.00;;;;;;;;;;5053093;27;92074;-61
2022/11/06 07:27:40;;;;;;;3.17;1.90;;;;;;;;;;5048109;27;92258;-60
2022/11/06 07:30:10;;;;;;;2.77;1.13;;;;;;;;;;5058442;27;93892;-57
2022/11/06 07:32:39;;;;;;;5.83;2.83;;;;;;;;;;5055189;27;93916;-58
2022/11/06 07:35:07;;;;;;;5.40;3.33;;;;;;;;;;5058230;27;92105;-58
2022/11/06 07:37:36;;;;;;;3.50;2.23;;;;;;;;;;5060170;27;92067;-58
2022/11/06 07:40:04;;;;;;;4.13;1.97;;;;;;;;;;5061360;27;94121;-59
2022/11/06 07:42:33;;;;;;;5.13;2.70;;;;;;;;;;5061693;27;93681;-59
2022/11/06 07:45:05;;;;;;;7.17;3.03;;;;;;;;;;5055154;27;92285;-58
2022/11/06 07:47:35;;;;;;;5.07;2.67;;;;;;;;;;5046294;27;92189;-59
2022/11/06 07:50:04;;;;;;;6.40;3.77;;;;;;;;;;5053674;27;92768;-59
2022/11/06 07:52:32;;;;;;;7.40;3.27;;;;;;;;;;5052106;27;92642;-59
2022/11/06 07:55:01;;;;;;;8.77;3.43;;;;;;;;;;5051618;27;92176;-59
2022/11/06 07:57:29;;;;;;;4.10;2.37;;;;;;;;;;5051519;27;91505;-58
2022/11/06 07:59:57;;;;;;;5.63;2.30;;;;;;;;;;5051867;27;93912;-59
2022/11/06 08:02:26;;;;;;;4.13;2.40;;;;;;;;;;5048821;27;93019;-59
2022/11/06 08:04:56;;;;;;;6.00;2.67;;;;;;;;;;5049938;27;93367;-59
2022/11/06 08:07:24;;;;;;;7.70;2.53;;;;;;;;;;5050993;27;92332;-59
2022/11/06 08:09:52;;;;;;;5.50;2.07;;;;;;;;;;5049273;27;95241;-59
2022/11/06 08:12:21;;;;;;;5.10;1.63;;;;;;;;;;5052177;27;92086;-58
2022/11/06 08:14:49;;;;;;;2.00;1.60;;;;;;;;;;5046706;27;93242;-58
2022/11/06 08:17:17;;;;;;;7.20;2.87;;;;;;;;;;5052436;27;92198;-58
2022/11/06 08:19:46;;;;;;;8.77;3.90;;;;;;;;;;5049929;27;93446;-59
2022/11/06 08:22:15;;;;;;;11.83;5.70;;;;;;;;;;5053072;27;92648;-58
2022/11/06 08:24:44;;;;;;;15.70;5.90;;;;;;;;;;5047311;27;92079;-59
2022/11/06 08:27:12;;;;;;;10.97;5.13;;;;;;;;;;5053490;27;92077;-58
2022/11/06 08:29:40;;;;;;;13.07;4.80;;;;;;;;;;5054212;27;94144;-59
2022/11/06 08:32:09;;;;;;;13.67;5.60;;;;;;;;;;5051745;27;92769;-59
2022/11/06 08:34:37;;;;;;;8.80;5.27;;;;;;;;;;5046625;27;92466;-59
2022/11/06 08:37:06;;;;;;;9.47;5.27;;;;;;;;;;5044886;27;92453;-59
2022/11/06 08:39:35;;;;;;;13.47;4.70;;;;;;;;;;5050890;27;94214;-59
2022/11/06 08:42:04;;;;;;;7.83;4.90;;;;;;;;;;5048840;27;93968;-59
2022/11/06 08:44:33;;;;;;;8.67;5.07;;;;;;;;;;5051283;27;93922;-59
2022/11/06 08:47:01;;;;;;;7.37;4.67;;;;;;;;;;5052567;27;91313;-59
2022/11/06 08:49:29;;;;;;;11.33;4.97;;;;;;;;;;5041337;27;94067;-59
2022/11/06 08:51:59;;;;;;;8.70;4.90;;;;;;;;;;5042588;27;92072;-59
2022/11/06 08:54:27;;;;;;;13.20;5.57;;;;;;;;;;5050694;27;93032;-60
2022/11/06 08:56:57;;;;;;;12.20;5.70;;;;;;;;;;5047690;27;92039;-59
2022/11/06 08:59:25;;;;;;;11.80;6.07;;;;;;;;;;5043723;27;93173;-59
2022/11/06 09:01:55;;;;;;;11.37;5.57;;;;;;;;;;5058799;27;93881;-60
2022/11/06 09:04:23;;;;;;;15.00;6.27;;;;;;;;;;5044810;27;91894;-59
2022/11/06 09:06:51;;;;;;;9.17;5.30;;;;;;;;;;5042837;27;92073;-59
2022/11/06 09:09:20;;;;;;;8.87;5.17;;;;;;;;;;5036892;28;93468;-59
2022/11/06 09:11:48;;;;;;;10.23;5.37;;;;;;;;;;5039384;28;92374;-59
2022/11/06 09:14:18;;;;;;;15.77;5.33;;;;;;;;;;5043567;27;92586;-60
2022/11/06 09:16:46;;;;;;;11.80;5.53;;;;;;;;;;5042939;27;92159;-59
2022/11/06 09:19:14;;;;;;;8.17;5.17;;;;;;;;;;5036646;28;95193;-57
2022/11/06 09:21:43;;;;;;;13.20;6.07;;;;;;;;;;5045329;27;94869;-60
2022/11/06 09:24:11;;;;;;;5.20;3.30;;;;;;;;;;5047406;27;92182;-60
2022/11/06 09:26:39;;;;;;;9.23;5.13;;;;;;;;;;5042957;27;92204;-59
2022/11/06 09:29:07;;;;;;;8.27;4.77;;;;;;;;;;5049396;27;93196;-60
2022/11/06 09:31:37;;;;;;;7.63;3.77;;;;;;;;;;5043027;27;93812;-59
2022/11/06 09:34:05;;;;;;;10.43;3.90;;;;;;;;;;5046558;27;92085;-58
2022/11/06 09:36:34;;;;;;;9.40;4.10;;;;;;;;;;5040382;27;91368;-56
2022/11/06 09:39:02;;;;;;;5.47;2.57;;;;;;;;;;5047771;27;93564;-59
2022/11/06 09:41:33;;;;;;;5.73;3.47;;;;;;;;;;5048298;27;92675;-57
2022/11/06 09:44:05;;;;;;;6.47;3.40;;;;;;;;;;5042109;27;93060;-57
2022/11/06 09:46:34;;;;;;;4.43;2.73;;;;;;;;;;5048287;27;92098;-59
2022/11/06 09:49:07;;;;;;;6.43;2.70;;;;;;;;;;5046103;27;93076;-57
2022/11/06 09:51:37;;;;;;;6.30;3.13;;;;;;;;;;5042570;27;92406;-56
2022/11/06 09:54:07;;;;;;;4.57;2.87;;;;;;;;;;5049505;27;92203;-64
2022/11/06 09:56:36;;;;;;;5.23;2.63;;;;;;;;;;5049229;27;92051;-60
2022/11/06 09:59:05;;;;;;;3.60;2.23;;;;;;;;;;5045957;27;93316;-60
2022/11/06 10:01:35;;;;;;;6.80;2.77;;;;;;;;;;5049680;27;93935;-60
2022/11/06 10:04:05;;;;;;;7.60;3.40;;;;;;;;;;5048499;27;92073;-61
2022/11/06 10:06:33;;;;;;;10.13;3.73;;;;;;;;;;5043136;27;92160;-61
2022/11/06 10:09:02;;;;;;;10.10;4.83;;;;;;;;;;5047044;27;94070;-61
2022/11/06 10:11:45;;;;;;;12.17;4.23;;;;;;;;;;5047859;27;93790;-62
2022/11/06 10:14:16;;;;;;;9.20;4.73;;;;;;;;;;5045308;27;92048;-62
2022/11/06 10:16:45;;;;;;;8.67;3.73;;;;;;;;;;5037656;28;92103;-62
2022/11/06 10:19:17;;;;;;;14.93;3.97;;;;;;;;;;5040810;27;94328;-63
2022/11/06 10:21:49;;;;;;;8.47;4.60;;;;;;;;;;5047821;27;92666;-63
2022/11/06 10:24:21;;;;;;;7.53;3.73;;;;;;;;;;5048928;27;92101;-65
2022/11/06 10:26:51;;;;;;;8.07;3.27;;;;;;;;;;5048130;27;91306;-64
2022/11/06 10:29:37;;;;;;;6.03;3.63;;;;;;;;;;5047322;27;94163;-65
2022/11/06 10:32:12;;;;;;;7.63;2.27;;;;;;;;;;5045315;27;92839;-65
2022/11/06 10:34:42;;;;;;;7.93;2.43;;;;;;;;;;5046441;27;93587;-65
2022/11/06 10:37:12;;;;;;;6.97;2.03;;;;;;;;;;5045466;27;92150;-64
2022/11/06 10:39:41;;;;;;;4.90;2.10;;;;;;;;;;5046150;27;93164;-64
2022/11/06 10:42:11;;;;;;;5.97;2.10;;;;;;;;;;5046327;27;93992;-65
2022/11/06 10:44:40;;;;;;;4.30;2.30;;;;;;;;;;5044482;27;93566;-64
2022/11/06 10:47:11;;;;;;;7.63;3.90;;;;;;;;;;5047477;27;92087;-65
2022/11/06 10:49:40;;;;;;;7.23;3.13;;;;;;;;;;5047145;27;94046;-64
2022/11/06 10:52:30;;;;;;;9.90;4.10;;;;;;;;;;5046239;27;92592;-64
2022/11/06 10:55:19;;;;;;;4.27;2.37;;;;;;;;;;5046528;27;92392;-65
2022/11/06 10:57:49;;;;;;;10.57;3.90;;;;;;;;;;5017910;27;92067;-64
2022/11/06 11:00:18;;;;;;;8.87;4.93;;;;;;;;;;5038772;27;94762;-64
2022/11/06 11:02:47;;;;;;;13.30;6.60;;;;;;;;;;5038295;27;93696;-65
2022/11/06 11:05:16;;;;;;;17.10;8.53;;;;;;;;;;5040724;27;92148;-64
2022/11/06 11:07:45;;;;;;;15.97;7.37;;;;;;;;;;5036790;28;92132;-65
2022/11/06 11:10:26;;;;;;;15.83;7.43;;;;;;;;;;5040522;27;93096;-65
2022/11/06 11:12:56;;;;;;;12.97;6.87;;;;;;;;;;5056496;27;92596;-61
2022/11/06 11:15:25;;;;;;;19.40;7.57;;;;;;;;;;5050998;27;92123;-61
2022/11/06 11:18:10;;;;;;;10.90;5.80;;;;;;;;;;5045983;27;91432;-61
2022/11/06 11:20:39;;;;;;;12.17;5.53;;;;;;;;;;5046765;27;94174;-60
2022/11/06 11:23:11;;;;;;;10.10;5.87;;;;;;;;;;5045565;27;96393;-60
2022/11/06 11:25:39;;;;;;;9.73;4.87;;;;;;;;;;5044457;27;93070;-60
2022/11/06 11:28:13;;;;;;;7.87;4.87;;;;;;;;;;5054986;27;92028;-60
2022/11/06 11:30:42;;;;;;;9.97;5.37;;;;;;;;;;5044645;27;94174;-61
2022/11/06 11:33:13;;;;;;;7.53;4.40;;;;;;;;;;5031371;27;92986;-61
2022/11/06 11:35:41;;;;;;;8.03;4.00;;;;;;;;;;5042664;27;92710;-61
2022/11/06 11:38:11;;;;;;;10.80;4.77;;;;;;;;;;5033923;28;92066;-58
2022/11/06 11:40:40;;;;;;;11.57;5.20;;;;;;;;;;5044242;27;94353;-62
2022/11/06 11:43:25;;;;;;;12.40;5.47;;;;;;;;;;5045227;27;93723;-62
2022/11/06 11:46:03;;;;;;;8.67;5.33;;;;;;;;;;5044851;27;92311;-63
2022/11/06 11:48:41;;;;;;;11.13;4.43;;;;;;;;;;5048516;27;92799;-62
2022/11/06 11:51:18;;;;;;;8.33;5.30;;;;;;;;;;5042959;27;95340;-63
2022/11/06 11:53:46;;;;;;;5.97;3.70;;;;;;;;;;5045620;27;94930;-62
2022/11/06 11:56:15;;;;;;;6.70;3.23;;;;;;;;;;5044870;27;92183;-60
2022/11/06 11:59:04;;;;;;;10.17;4.97;;;;;;;;;;5045903;27;92520;-58
2022/11/06 12:01:34;;;;;;;16.63;6.20;;;;;;;;;;5045685;27;93073;-58
2022/11/06 12:04:03;;;;;;;12.87;7.30;;;;;;;;;;5043544;27;92973;-58
2022/11/06 12:06:31;;;;;;;13.27;7.47;;;;;;;;;;5045774;27;92131;-58
2022/11/06 12:08:59;;;;;;;15.20;7.20;;;;;;;;;;5047130;27;91322;-58
2022/11/06 12:11:29;;;;;;;13.50;5.43;;;;;;;;;;5043850;27;92965;-58
2022/11/06 12:14:16;;;;;;;10.50;4.70;;;;;;;;;;5047101;27;93856;-58
2022/11/06 12:16:46;;;;;;;9.23;4.23;;;;;;;;;;5049792;27;93146;-58
2022/11/06 12:19:14;;;;;;;13.97;4.33;;;;;;;;;;5052484;27;92087;-58
2022/11/06 12:21:42;;;;;;;9.27;3.50;;;;;;;;;;5046140;27;94175;-58
2022/11/06 12:24:11;;;;;;;10.13;4.53;;;;;;;;;;5041140;27;94117;-58
2022/11/06 12:26:42;;;;;;;10.60;4.70;;;;;;;;;;5046633;27;92827;-57
2022/11/06 12:29:11;;;;;;;17.87;7.33;;;;;;;;;;5051105;27;92183;-59
2022/11/06 12:31:41;;;;;;;11.03;5.67;;;;;;;;;;5050457;27;93034;-59
2022/11/06 12:34:13;;;;;;;17.40;7.30;;;;;;;;;;5049357;27;93727;-59
2022/11/06 12:36:46;;;;;;;10.47;5.77;;;;;;;;;;5048845;27;92128;-56
2022/11/06 12:39:15;;;;;;;10.30;6.00;;;;;;;;;;5049119;27;92102;-56
2022/11/06 12:41:44;;;;;;;9.70;4.53;;;;;;;;;;5045656;27;95256;-59
2022/11/06 12:44:13;;;;;;;10.53;5.77;;;;;;;;;;5045345;27;93521;-61
2022/11/06 12:46:44;;;;;;;8.57;4.37;;;;;;;;;;5050852;27;92146;-59
2022/11/06 12:49:23;;;;;;;8.10;3.20;;;;;;;;;;5051104;27;92030;-59
2022/11/06 12:51:57;;;;;;;4.30;2.73;;;;;;;;;;5054428;27;93169;-59
2022/11/06 12:54:30;;;;;;;6.07;3.30;;;;;;;;;;5056498;27;93022;-59
2022/11/06 12:57:00;;;;;;;5.20;1.97;;;;;;;;;;5060987;27;92055;-59
2022/11/06 12:59:33;;;;;;;2.33;1.97;;;;;;;;;;5058960;27;91895;-59
2022/11/06 13:02:03;;;;;;;3.07;1.87;;;;;;;;;;5047138;27;93024;-59
2022/11/06 13:04:36;;;;;;;4.83;2.80;;;;;;;;;;5050219;27;92717;-58
2022/11/06 13:07:08;;;;;;;6.27;3.33;;;;;;;;;;5047415;27;92998;-58
2022/11/06 13:09:37;;;;;;;12.03;4.30;;;;;;;;;;5046596;27;93086;-58
2022/11/06 13:12:07;;;;;;;11.80;5.30;;;;;;;;;;5048629;27;94262;-60
2022/11/06 13:14:36;;;;;;;11.27;4.43;;;;;;;;;;5046393;27;92827;-61
2022/11/06 13:17:05;;;;;;;8.00;3.93;;;;;;;;;;5048272;27;92036;-61
2022/11/06 13:19:36;;;;;;;5.33;3.20;;;;;;;;;;5047272;27;92143;-59
2022/11/06 13:22:16;;;;;;;7.97;2.60;;;;;;;;;;5050107;27;94185;-60
2022/11/06 13:24:46;;;;;;;10.10;3.73;;;;;;;;;;5036882;27;94568;-59
2022/11/06 13:27:18;;;;;;;2.60;2.00;;;;;;;;;;5047034;27;92153;-60
2022/11/06 13:29:46;;;;;;;3.20;2.07;;;;;;;;;;5052525;27;92052;-59
2022/11/06 13:32:15;;;;;;;1.77;1.50;;;;;;;;;;5049049;27;94120;-60
2022/11/06 13:34:45;;;;;;;4.57;2.47;;;;;;;;;;5053257;27;94802;-60
2022/11/06 13:37:14;;;;;;;2.60;1.47;;;;;;;;;;5048510;27;92840;-58
2022/11/06 13:39:43;;;;;;;4.97;1.63;;;;;;;;;;5048179;27;92235;-59
2022/11/06 13:42:19;;;;;;;3.73;2.07;;;;;;;;;;5046852;27;95589;-59
2022/11/06 13:44:47;;;;;;;2.47;1.50;;;;;;;;;;5045995;27;92902;-59
2022/11/06 13:47:17;;;;;;;4.80;1.87;;;;;;;;;;5048974;27;92152;-61
2022/11/06 13:49:47;;;;;;;4.50;1.80;;;;;;;;;;5047854;27;91329;-59
2022/11/06 13:52:17;;;;;;;3.50;1.87;;;;;;;;;;5045823;27;94223;-59
2022/11/06 13:54:58;;;;;;;1.73;1.20;;;;;;;;;;5045542;27;92940;-59
2022/11/06 13:57:33;;;;;;;2.00;1.53;;;;;;;;;;5045506;27;93605;-59
2022/11/06 14:00:04;;;;;;;2.90;1.87;;;;;;;;;;5050600;27;92155;-59
2022/11/06 14:02:40;;;;;;;1.80;1.40;;;;;;;;;;5047431;27;93122;-59
2022/11/06 14:05:27;;;;;;;4.63;2.30;;;;;;;;;;5046112;27;93974;-59
2022/11/06 14:07:57;;;;;;;4.77;1.43;;;;;;;;;;5037769;27;92086;-59
2022/11/06 14:10:33;;;;;;;2.57;1.30;;;;;;;;;;5040960;27;92681;-59
2022/11/06 14:13:01;;;;;;;3.73;1.30;;;;;;;;;;5040943;27;94141;-59
2022/11/06 14:15:31;;;;;;;1.97;1.63;;;;;;;;;;5039631;28;92396;-59
2022/11/06 14:18:00;;;;;;;2.40;1.20;;;;;;;;;;5038058;28;92265;-59
2022/11/06 14:20:29;;;;;;;1.43;1.30;;;;;;;;;;5045841;27;92085;-59
2022/11/06 14:23:01;;;;;;;1.33;0.90;;;;;;;;;;5058950;27;94289;-58
2022/11/06 14:25:46;;;;;;;4.37;1.47;;;;;;;;;;5059396;27;93578;-59
2022/11/06 14:28:16;;;;;;;2.73;1.70;;;;;;;;;;5060361;27;92024;-59
2022/11/06 14:30:44;;;;;;;4.30;1.20;;;;;;;;;;5059013;27;92183;-60
2022/11/06 14:33:48;;;;;;;10.97;1.53;;;;;;;;;;5058693;27;92881;-59
2022/11/06 14:36:26;;;;;;;2.83;1.50;;;;;;;;;;5043180;27;92125;-59
2022/11/06 14:38:56;;;;;;;2.87;1.20;;;;;;;;;;5059779;27;92165;-58
2022/11/06 14:41:42;;;;;;;1.93;1.20;;;;;;;;;;5059666;27;91281;-59
2022/11/06 14:44:14;;;;;;;1.83;1.53;;;;;;;;;;5025970;27;94275;-60
2022/11/06 14:46:45;;;;;;;2.77;1.30;;;;;;;;;;5039577;28;92912;-60
2022/11/06 14:49:18;;;;;;;6.13;1.70;;;;;;;;;;5043136;27;92944;-60
2022/11/06 14:51:50;;;;;;;2.13;1.33;;;;;;;;;;5048415;27;91992;-60
2022/11/06 14:54:21;;;;;;;2.43;0.70;;;;;;;;;;5039450;27;94155;-59
2022/11/06 14:56:52;;;;;;;3.93;1.47;;;;;;;;;;5052985;27;92972;-59
2022/11/06 14:59:21;;;;;;;1.23;1.13;;;;;;;;;;5054715;27;92026;-59
2022/11/06 15:01:55;;;;;;;2.63;1.33;;;;;;;;;;5055323;27;92596;-59
2022/11/06 15:04:24;;;;;;;2.00;1.07;;;;;;;;;;5053902;27;94207;-59
2022/11/06 15:06:52;;;;;;;0.70;0.60;;;;;;;;;;5054864;27;92761;-59
2022/11/06 15:09:35;;;;;;;1.50;0.83;;;;;;;;;;5053508;27;92194;-59
2022/11/06 15:12:06;;;;;;;0.80;0.80;;;;;;;;;;5052296;27;92222;-59
2022/11/06 15:14:53;;;;;;;2.23;0.90;;;;;;;;;;5052363;27;94102;-60
2022/11/06 15:17:22;;;;;;;1.67;0.70;;;;;;;;;;5046854;27;93950;-59
2022/11/06 15:19:52;;;;;;;1.20;1.00;;;;;;;;;;5047023;27;92565;-59